Terminal Aerodrome Forecast
Issued by NWS Burlington, VT

Home | Current Version | Previous Version | Text Only | Print | Product List | Glossary On
Versions: 1 2 3 4 5 6 7 8 9 10 11 12 13 14 15
000
FTUS41 KBTV 261732
TAFBTV
TAF
KBTV 261732Z 2618/2718 33006KT P6SM SCT250
     FM262000 07005KT P6SM FEW060 SCT200
     FM262300 09004KT P6SM VCSH SCT060 BKN120
     FM270500 16005KT P6SM OVC100
     FM271300 18009KT P6SM SCT110
     FM271700 18008KT P6SM VCSH SCT070=

USA.gov is the U.S. government's official web portal to all federal, state and local government web resources and services.